createdAt,value
2019-03-05T00:00:29.998Z,9.87
2019-03-05T00:02:59.451Z,9.83
2019-03-05T00:05:29.108Z,9.10
2019-03-05T00:07:58.707Z,9.37
2019-03-05T00:10:28.232Z,9.80
2019-03-05T00:12:57.845Z,6.83
2019-03-05T00:15:28.884Z,11.03
2019-03-05T00:17:58.652Z,10.30
2019-03-05T00:20:28.355Z,10.37
2019-03-05T00:22:58.008Z,10.13
2019-03-05T00:25:34.447Z,9.97
2019-03-05T00:28:11.478Z,7.83
2019-03-05T00:30:46.317Z,9.47
2019-03-05T00:33:32.906Z,11.30
2019-03-05T00:36:31.021Z,7.70
2019-03-05T00:39:36.855Z,8.40
2019-03-05T00:42:49.863Z,13.10
2019-03-05T00:45:54.401Z,11.57
2019-03-05T00:48:55.243Z,10.70
2019-03-05T00:51:32.104Z,5.87
2019-03-05T00:54:30.016Z,8.10
2019-03-05T00:57:06.678Z,9.83
2019-03-05T00:59:55.091Z,6.73
2019-03-05T01:02:45.765Z,5.43
2019-03-05T01:05:55.934Z,6.53
2019-03-05T01:08:25.829Z,4.50
2019-03-05T01:10:55.306Z,4.43
2019-03-05T01:13:25.245Z,6.47
2019-03-05T01:15:54.782Z,5.60
2019-03-05T01:18:24.318Z,4.90
2019-03-05T01:20:53.897Z,4.23
2019-03-05T01:23:23.392Z,4.77
2019-03-05T01:25:52.926Z,2.83
2019-03-05T01:28:22.421Z,6.00
2019-03-05T01:31:10.169Z,4.47
2019-03-05T01:33:53.486Z,3.90
2019-03-05T01:36:24.587Z,5.57
2019-03-05T01:38:58.307Z,5.83
2019-03-05T01:41:27.852Z,4.40
2019-03-05T01:43:57.303Z,4.83
2019-03-05T01:46:26.710Z,3.40
2019-03-05T01:48:56.126Z,5.47
2019-03-05T01:51:25.555Z,4.53
2019-03-05T01:53:54.967Z,4.13
2019-03-05T01:56:24.463Z,4.60
2019-03-05T01:58:53.873Z,3.43
2019-03-05T02:01:23.328Z,4.13
2019-03-05T02:03:52.858Z,5.00
2019-03-05T02:06:22.390Z,4.03
2019-03-05T02:08:52.013Z,7.47
2019-03-05T02:11:21.598Z,5.30
2019-03-05T02:13:51.312Z,5.57
2019-03-05T02:16:20.806Z,4.87
2019-03-05T02:18:50.231Z,4.83
2019-03-05T02:21:19.825Z,4.70
2019-03-05T02:24:26.887Z,7.90
2019-03-05T02:27:32.376Z,3.83
2019-03-05T02:30:06.501Z,3.50
2019-03-05T02:33:01.495Z,3.23
2019-03-05T02:35:44.442Z,6.23
2019-03-05T02:38:36.657Z,5.37
2019-03-05T02:41:28.309Z,6.20
2019-03-05T02:44:25.676Z,3.73
2019-03-05T02:47:08.517Z,4.30
2019-03-05T02:49:57.491Z,4.00
2019-03-05T02:52:43.307Z,5.93
2019-03-05T02:58:34.611Z,4.47
2019-03-05T03:01:05.869Z,4.87
2019-03-05T03:03:46.183Z,5.10
2019-03-05T03:06:17.714Z,4.20
2019-03-05T03:08:47.233Z,5.40
2019-03-05T03:11:16.735Z,5.73
2019-03-05T03:13:46.197Z,2.97
2019-03-05T03:16:15.640Z,4.33
2019-03-05T03:18:45.089Z,4.83
2019-03-05T03:21:14.506Z,5.00
2019-03-05T03:23:43.961Z,3.73
2019-03-05T03:26:13.435Z,3.03
2019-03-05T03:28:42.895Z,4.37
2019-03-05T03:31:12.330Z,4.07
2019-03-05T03:33:41.757Z,3.83
2019-03-05T03:36:11.242Z,5.73
2019-03-05T03:38:40.659Z,5.27
2019-03-05T03:41:10.084Z,3.90
2019-03-05T03:43:39.645Z,3.97
2019-03-05T03:46:09.165Z,3.47
2019-03-05T03:48:38.646Z,4.27
2019-03-05T03:51:08.129Z,3.97
2019-03-05T03:53:37.623Z,4.57
2019-03-05T03:56:07.193Z,6.53
2019-03-05T03:58:36.747Z,3.93
2019-03-05T04:01:07.269Z,3.67
2019-03-05T04:03:37.268Z,3.73
2019-03-05T04:06:06.887Z,3.97
2019-03-05T04:08:36.470Z,5.13
2019-03-05T04:11:06.069Z,4.83
2019-03-05T04:13:35.607Z,8.93
2019-03-05T04:16:05.131Z,3.60
2019-03-05T04:18:34.639Z,5.77
2019-03-05T04:21:04.080Z,6.23
2019-03-05T04:23:33.432Z,4.63
2019-03-05T04:26:02.899Z,7.50
2019-03-05T04:28:32.442Z,5.37
2019-03-05T04:31:01.971Z,5.30
2019-03-05T04:33:31.417Z,5.13
2019-03-05T04:36:00.895Z,6.87
2019-03-05T04:38:30.345Z,5.47
2019-03-05T04:40:59.800Z,5.17
2019-03-05T04:43:29.263Z,7.03
2019-03-05T04:46:00.413Z,5.40
2019-03-05T04:48:29.959Z,7.10
2019-03-05T04:51:01.102Z,5.07
2019-03-05T04:53:30.605Z,4.27
2019-03-05T04:56:00.049Z,5.33
2019-03-05T04:58:29.546Z,4.43
2019-03-05T05:00:59.099Z,5.70
2019-03-05T05:03:28.631Z,5.73
2019-03-05T05:05:58.206Z,4.67
2019-03-05T05:08:27.757Z,4.80
2019-03-05T05:10:57.187Z,4.80
2019-03-05T05:13:26.712Z,3.53
2019-03-05T05:15:56.221Z,4.83
2019-03-05T05:18:25.686Z,5.97
2019-03-05T05:20:55.162Z,5.10
2019-03-05T05:23:24.621Z,5.23
2019-03-05T05:25:54.102Z,5.87
2019-03-05T05:28:23.529Z,4.67
2019-03-05T05:30:53.036Z,3.83
2019-03-05T05:33:22.457Z,5.77
2019-03-05T05:35:51.939Z,4.13
2019-03-05T05:38:21.385Z,4.83
2019-03-05T05:40:50.924Z,4.87
2019-03-05T05:43:24.755Z,3.87
2019-03-05T05:45:55.096Z,4.10
2019-03-05T05:48:24.603Z,4.70
2019-03-05T05:50:54.078Z,3.43
2019-03-05T05:53:23.535Z,5.40
2019-03-05T05:55:52.999Z,3.70
2019-03-05T05:58:22.518Z,2.87
2019-03-05T06:00:53.600Z,4.50
2019-03-05T06:03:23.187Z,3.80
2019-03-05T06:05:52.718Z,4.23
2019-03-05T06:08:22.233Z,4.03
2019-03-05T06:10:52.879Z,3.60
2019-03-05T06:13:22.778Z,4.23
2019-03-05T06:15:52.387Z,3.50
2019-03-05T06:18:21.773Z,4.30
2019-03-05T06:20:51.235Z,3.37
2019-03-05T06:23:20.695Z,3.47
2019-03-05T06:25:50.150Z,3.67
2019-03-05T06:28:19.611Z,3.10
2019-03-05T06:30:49.120Z,2.40
2019-03-05T06:33:18.574Z,2.70
2019-03-05T06:35:48.100Z,1.97
2019-03-05T06:38:17.658Z,1.80
2019-03-05T06:40:47.116Z,1.60
2019-03-05T06:43:16.594Z,3.40
2019-03-05T06:45:46.114Z,2.30
2019-03-05T06:48:15.559Z,2.37
2019-03-05T06:50:45.080Z,1.77
2019-03-05T06:53:14.539Z,2.43
2019-03-05T06:55:44.056Z,1.87
2019-03-05T06:58:13.526Z,2.30
2019-03-05T07:00:43.058Z,1.77
2019-03-05T07:03:12.667Z,2.40
2019-03-05T07:06:36.699Z,1.63
2019-03-05T07:09:38.484Z,1.70
2019-03-05T07:12:33.791Z,2.43
2019-03-05T07:15:18.603Z,1.83
2019-03-05T07:18:10.723Z,2.40
2019-03-05T07:21:12.731Z,2.17
2019-03-05T07:24:12.269Z,2.40
2019-03-05T07:26:41.797Z,2.17
2019-03-05T07:29:11.296Z,2.17
2019-03-05T07:31:40.994Z,2.13
2019-03-05T07:34:12.105Z,2.17
2019-03-05T07:36:41.661Z,2.23
2019-03-05T07:39:15.936Z,2.20
2019-03-05T07:41:45.365Z,2.80
2019-03-05T07:44:14.848Z,2.47
2019-03-05T07:46:44.351Z,2.30
2019-03-05T07:49:13.781Z,2.30
2019-03-05T07:51:43.249Z,2.23
2019-03-05T07:54:12.855Z,1.97
2019-03-05T07:56:42.317Z,2.23
2019-03-05T07:59:11.753Z,2.67
2019-03-05T08:01:41.286Z,4.00
2019-03-05T08:04:10.729Z,2.73
2019-03-05T08:06:40.234Z,2.63
2019-03-05T08:09:32.103Z,4.10
2019-03-05T08:12:28.575Z,2.60
2019-03-05T08:15:11.456Z,2.60
2019-03-05T08:17:40.889Z,3.40
2019-03-05T08:20:12.843Z,2.40
2019-03-05T08:22:43.003Z,3.10
2019-03-05T08:25:13.977Z,3.23
2019-03-05T08:27:43.485Z,2.83
2019-03-05T08:30:16.939Z,3.33
2019-03-05T08:32:46.459Z,3.77
2019-03-05T08:35:16.119Z,3.00
2019-03-05T08:37:45.588Z,2.93
2019-03-05T08:40:16.865Z,5.50
2019-03-05T08:42:46.387Z,3.30
2019-03-05T08:45:28.503Z,3.43
2019-03-05T08:47:48.019Z,3.87
2019-03-05T08:50:17.610Z,4.17
2019-03-05T08:52:47.175Z,3.93
2019-03-05T08:55:16.725Z,3.33
2019-03-05T08:57:46.335Z,4.37
2019-03-05T09:00:21.285Z,4.20
2019-03-05T09:02:50.725Z,3.70
2019-03-05T09:05:21.212Z,3.77
2019-03-05T09:07:50.865Z,4.10
2019-03-05T09:10:24.866Z,4.47
2019-03-05T09:12:54.526Z,3.77
2019-03-05T09:15:24.144Z,3.77
2019-03-05T09:17:53.677Z,4.70
2019-03-05T09:20:23.386Z,6.30
2019-03-05T09:22:52.968Z,4.50
2019-03-05T09:25:22.648Z,3.77
2019-03-05T09:27:52.237Z,4.80
2019-03-05T09:30:23.395Z,4.23
2019-03-05T09:32:53.054Z,5.43
2019-03-05T09:35:22.639Z,3.77
2019-03-05T09:37:52.226Z,5.50
2019-03-05T09:40:32.777Z,5.43
2019-03-05T09:43:02.418Z,4.60
2019-03-05T09:45:32.037Z,4.97
2019-03-05T09:48:01.688Z,5.20
2019-03-05T09:50:32.246Z,5.67
2019-03-05T09:53:02.174Z,4.90
2019-03-05T09:55:34.747Z,6.73
2019-03-05T09:58:08.453Z,6.17
2019-03-05T10:00:37.321Z,7.23
2019-03-05T10:03:07.870Z,7.27
2019-03-05T10:05:37.558Z,5.27
2019-03-05T10:08:07.241Z,4.20
2019-03-05T10:10:36.785Z,6.47
2019-03-05T10:13:07.039Z,4.13
2019-03-05T10:15:36.727Z,7.73
2019-03-05T10:18:12.837Z,5.10
2019-03-05T10:20:37.942Z,4.83
2019-03-05T10:23:07.559Z,4.80
2019-03-05T10:25:37.150Z,6.07
2019-03-05T10:28:06.912Z,5.43
2019-03-05T10:30:44.264Z,7.03
2019-03-05T10:33:16.657Z,6.03
2019-03-05T10:35:46.251Z,5.27
2019-03-05T10:38:15.873Z,6.97
2019-03-05T10:40:52.294Z,5.37
2019-03-05T10:43:21.879Z,4.87
2019-03-05T10:45:51.532Z,4.33
2019-03-05T10:48:24.231Z,5.13
2019-03-05T10:50:54.396Z,5.00
2019-03-05T10:53:24.068Z,5.67
2019-03-05T10:55:53.834Z,4.37
2019-03-05T10:58:33.403Z,3.83
2019-03-05T11:00:57.023Z,7.03
2019-03-05T11:03:29.846Z,4.30
2019-03-05T11:06:00.093Z,6.83
2019-03-05T11:08:29.762Z,4.73
2019-03-05T11:11:01.035Z,6.40
2019-03-05T11:13:30.619Z,3.93
2019-03-05T11:16:05.727Z,7.70
2019-03-05T11:18:36.280Z,5.77
2019-03-05T11:21:07.286Z,4.67
2019-03-05T11:23:36.846Z,4.90
2019-03-05T11:26:06.581Z,4.03
2019-03-05T11:28:36.047Z,3.47
2019-03-05T11:31:06.349Z,5.40
2019-03-05T11:33:35.839Z,2.70
2019-03-05T11:36:06.130Z,3.73
2019-03-05T11:38:35.738Z,3.90
2019-03-05T11:41:05.427Z,4.47
2019-03-05T11:43:35.049Z,2.80
2019-03-05T11:46:07.371Z,4.10
2019-03-05T11:48:36.806Z,3.07
2019-03-05T11:51:06.470Z,4.57
2019-03-05T11:53:35.938Z,3.07
2019-03-05T11:56:05.540Z,4.30
2019-03-05T11:58:35.000Z,3.60
2019-03-05T12:01:18.768Z,3.30
2019-03-05T12:03:48.250Z,3.93
2019-03-05T12:06:17.684Z,4.10
2019-03-05T12:08:47.170Z,3.10
2019-03-05T12:11:18.823Z,5.00
2019-03-05T12:13:48.379Z,2.93
2019-03-05T12:16:17.920Z,4.20
2019-03-05T12:18:47.437Z,3.60
2019-03-05T12:21:17.101Z,2.77
2019-03-05T12:23:47.251Z,3.30
2019-03-05T12:26:17.913Z,3.33
2019-03-05T12:28:47.549Z,3.33
2019-03-05T12:31:17.002Z,3.67
2019-03-05T12:33:46.630Z,2.20
2019-03-05T12:36:15.939Z,2.00
2019-03-05T12:38:46.377Z,2.97
2019-03-05T12:41:16.038Z,2.53
2019-03-05T12:43:47.129Z,2.53
2019-03-05T12:46:16.743Z,3.40
2019-03-05T12:48:46.253Z,4.30
2019-03-05T12:51:15.998Z,2.93
2019-03-05T12:53:45.481Z,2.10
2019-03-05T12:56:23.476Z,3.37
2019-03-05T12:58:46.208Z,4.03
2019-03-05T13:01:15.912Z,3.80
2019-03-05T13:03:45.467Z,3.57
2019-03-05T13:06:15.068Z,3.23
2019-03-05T13:08:44.583Z,2.87
2019-03-05T13:11:14.530Z,2.17
2019-03-05T13:13:47.612Z,2.90
2019-03-05T13:16:15.508Z,2.57
2019-03-05T13:18:45.049Z,1.87
2019-03-05T13:21:14.585Z,2.23
2019-03-05T13:23:44.057Z,2.13
2019-03-05T13:26:13.501Z,1.77
2019-03-05T13:28:42.985Z,2.57
2019-03-05T13:31:12.538Z,4.07
2019-03-05T13:33:42.273Z,3.60
2019-03-05T13:36:13.428Z,3.43
2019-03-05T13:38:45.353Z,2.27
2019-03-05T13:41:15.616Z,3.27
2019-03-05T13:43:45.865Z,2.53
2019-03-05T13:46:15.402Z,2.00
2019-03-05T13:48:59.243Z,2.60
2019-03-05T13:52:02.701Z,3.37
2019-03-05T13:54:57.452Z,2.90
2019-03-05T13:57:43.693Z,3.53
2019-03-05T14:00:16.641Z,3.23
2019-03-05T14:03:11.275Z,2.27
2019-03-05T14:06:15.026Z,3.10
2019-03-05T14:09:18.799Z,3.30
2019-03-05T14:11:50.649Z,2.97
2019-03-05T14:14:22.826Z,2.70
2019-03-05T14:16:54.134Z,4.53
2019-03-05T14:19:23.726Z,3.30
2019-03-05T14:21:53.340Z,2.67
2019-03-05T14:24:22.909Z,3.20
2019-03-05T14:26:52.405Z,3.20
2019-03-05T14:29:21.952Z,3.23
2019-03-05T14:31:51.500Z,5.03
2019-03-05T14:34:20.977Z,3.83
2019-03-05T14:36:50.552Z,2.63
2019-03-05T14:39:31.298Z,2.87
2019-03-05T14:42:01.851Z,2.83
2019-03-05T14:44:39.991Z,3.73
2019-03-05T14:47:05.795Z,2.87
2019-03-05T14:49:35.258Z,2.10
2019-03-05T14:52:06.509Z,3.00
2019-03-05T14:54:37.669Z,3.53
2019-03-05T14:57:07.279Z,6.30
2019-03-05T14:59:36.904Z,2.03
2019-03-05T15:02:06.809Z,3.97
2019-03-05T15:04:36.340Z,4.30
2019-03-05T15:07:06.195Z,4.10
2019-03-05T15:09:35.817Z,2.47
2019-03-05T15:12:05.502Z,4.50
2019-03-05T15:14:35.206Z,2.03
2019-03-05T15:17:04.873Z,4.20
2019-03-05T15:19:34.811Z,3.17
2019-03-05T15:22:04.555Z,3.60
2019-03-05T15:24:34.133Z,3.80
2019-03-05T15:27:03.571Z,3.07
2019-03-05T15:29:33.169Z,2.93
2019-03-05T15:32:02.852Z,3.93
2019-03-05T15:34:32.390Z,3.03
2019-03-05T15:37:01.959Z,2.87
2019-03-05T15:39:31.936Z,4.63
2019-03-05T15:42:01.533Z,3.17
2019-03-05T15:44:31.142Z,3.13
2019-03-05T15:47:00.573Z,3.53
2019-03-05T15:49:30.100Z,2.83
2019-03-05T15:51:59.651Z,2.90
2019-03-05T15:54:29.147Z,2.93
2019-03-05T15:56:58.581Z,3.23
2019-03-05T15:59:28.157Z,5.40
2019-03-05T16:01:57.700Z,4.33
2019-03-05T16:04:27.118Z,4.53
2019-03-05T16:06:56.612Z,3.37
2019-03-05T16:09:27.713Z,5.67
2019-03-05T16:11:58.836Z,2.77
2019-03-05T16:14:29.570Z,2.17
2019-03-05T16:16:59.921Z,3.00
2019-03-05T16:19:29.400Z,2.77
2019-03-05T16:21:58.872Z,2.03
2019-03-05T16:24:28.361Z,4.10
2019-03-05T16:26:57.899Z,4.50
2019-03-05T16:29:27.353Z,3.43
2019-03-05T16:32:16.939Z,3.20
2019-03-05T16:34:50.587Z,3.97
2019-03-05T16:37:33.801Z,3.43
2019-03-05T16:40:05.363Z,4.17
2019-03-05T16:42:41.884Z,2.83
2019-03-05T16:45:13.278Z,2.33
2019-03-05T16:47:59.567Z,3.67
2019-03-05T16:50:46.716Z,2.87
2019-03-05T16:53:35.952Z,2.33
2019-03-05T16:56:09.769Z,3.30
2019-03-05T16:58:40.895Z,3.40
2019-03-05T17:01:20.994Z,2.50
2019-03-05T17:04:08.392Z,3.97
2019-03-05T17:06:42.538Z,5.10
2019-03-05T17:09:13.670Z,3.40
2019-03-05T17:11:50.842Z,4.93
2019-03-05T17:14:20.351Z,2.73
2019-03-05T17:16:49.864Z,2.43
2019-03-05T17:19:19.483Z,3.83
2019-03-05T17:21:49.324Z,2.60
2019-03-05T17:24:19.476Z,4.07
2019-03-05T17:26:49.115Z,4.00
2019-03-05T17:29:18.627Z,4.17
2019-03-05T17:31:48.265Z,4.00
2019-03-05T17:34:17.909Z,2.67
2019-03-05T17:36:47.430Z,4.43
2019-03-05T17:39:18.675Z,3.10
2019-03-05T17:41:48.185Z,13.03
2019-03-05T17:44:17.810Z,4.23
2019-03-05T17:46:47.573Z,4.77
2019-03-05T17:49:17.192Z,5.90
2019-03-05T17:51:46.673Z,2.77
2019-03-05T17:54:16.302Z,3.23
2019-03-05T17:56:46.104Z,4.03
2019-03-05T17:59:15.602Z,3.27
2019-03-05T18:01:45.336Z,4.60
2019-03-05T18:04:14.936Z,4.33
2019-03-05T18:06:44.559Z,4.17
2019-03-05T18:09:14.703Z,4.87
2019-03-05T18:11:44.231Z,4.43
2019-03-05T18:14:13.885Z,4.53
2019-03-05T18:16:43.352Z,3.53
2019-03-05T18:19:12.708Z,3.30
2019-03-05T18:21:42.461Z,4.17
2019-03-05T18:24:11.925Z,4.60
2019-03-05T18:26:41.402Z,2.73
2019-03-05T18:29:11.027Z,3.00
2019-03-05T18:31:40.552Z,3.67
2019-03-05T18:34:10.100Z,5.93
2019-03-05T18:36:39.651Z,4.13
2019-03-05T18:39:09.188Z,5.30
2019-03-05T18:41:38.782Z,3.80
2019-03-05T18:44:08.388Z,3.07
2019-03-05T18:46:39.559Z,2.10
2019-03-05T18:49:09.095Z,5.20
2019-03-05T18:51:38.699Z,3.80
2019-03-05T18:54:08.263Z,4.33
2019-03-05T18:56:38.104Z,4.27
2019-03-05T18:59:07.547Z,2.43
2019-03-05T19:01:37.003Z,3.30
2019-03-05T19:04:06.616Z,4.90
2019-03-05T19:06:36.210Z,3.37
2019-03-05T19:09:07.265Z,3.57
2019-03-05T19:11:36.789Z,3.33
2019-03-05T19:14:06.399Z,4.37
2019-03-05T19:16:35.958Z,4.47
2019-03-05T19:19:05.495Z,5.53
2019-03-05T19:21:34.984Z,3.60
2019-03-05T19:24:04.513Z,3.40
2019-03-05T19:26:34.136Z,6.00
2019-03-05T19:29:03.653Z,3.97
2019-03-05T19:31:33.415Z,4.73
2019-03-05T19:34:02.980Z,5.90
2019-03-05T19:36:32.422Z,4.13
2019-03-05T19:39:01.863Z,5.37
2019-03-05T19:41:31.370Z,4.57
2019-03-05T19:44:00.887Z,3.77
2019-03-05T19:46:30.534Z,4.87
2019-03-05T19:49:00.017Z,4.83
2019-03-05T19:51:29.617Z,7.83
2019-03-05T19:53:59.059Z,4.70
2019-03-05T19:56:28.706Z,4.33
2019-03-05T19:58:58.177Z,5.03
2019-03-05T20:01:29.370Z,6.00
2019-03-05T20:03:58.857Z,5.33
2019-03-05T20:06:28.562Z,4.00
2019-03-05T20:08:58.041Z,4.37
2019-03-05T20:11:27.572Z,3.53
2019-03-05T20:13:57.027Z,5.27
2019-03-05T20:16:26.588Z,7.07
2019-03-05T20:18:56.126Z,7.23
2019-03-05T20:21:25.598Z,6.00
2019-03-05T20:23:55.355Z,4.17
2019-03-05T20:26:24.923Z,5.27
2019-03-05T20:28:54.455Z,5.07
2019-03-05T20:31:24.029Z,4.77
2019-03-05T20:33:53.380Z,4.77
2019-03-05T20:36:22.902Z,5.10
2019-03-05T20:38:52.377Z,6.13
2019-03-05T20:41:21.845Z,5.30
2019-03-05T20:43:51.316Z,4.80
2019-03-05T20:46:22.098Z,4.30
2019-03-05T20:48:51.384Z,6.07
2019-03-05T20:51:21.065Z,4.57
2019-03-05T20:53:50.612Z,5.47
2019-03-05T20:56:20.159Z,7.43
2019-03-05T20:58:49.623Z,4.60
2019-03-05T21:01:19.234Z,4.53
2019-03-05T21:03:48.744Z,7.57
2019-03-05T21:06:18.334Z,3.83
2019-03-05T21:08:47.871Z,5.90
2019-03-05T21:11:17.333Z,4.00
2019-03-05T21:13:46.852Z,4.30
2019-03-05T21:16:16.409Z,4.73
2019-03-05T21:18:46.209Z,4.07
2019-03-05T21:21:15.804Z,5.53
2019-03-05T21:23:45.388Z,4.20
2019-03-05T21:26:14.935Z,5.17
2019-03-05T21:28:44.571Z,6.77
2019-03-05T21:31:14.137Z,4.97
2019-03-05T21:33:43.603Z,6.23
2019-03-05T21:36:13.152Z,3.53
2019-03-05T21:38:42.621Z,5.23
2019-03-05T21:41:12.212Z,7.53
2019-03-05T21:43:41.734Z,5.47
2019-03-05T21:46:16.315Z,5.93
2019-03-05T21:48:45.880Z,3.17
2019-03-05T21:51:15.391Z,3.73
2019-03-05T21:53:44.897Z,5.30
2019-03-05T21:56:14.381Z,4.13
2019-03-05T21:58:43.848Z,6.20
2019-03-05T22:01:13.377Z,6.23
2019-03-05T22:03:42.923Z,5.63
2019-03-05T22:06:12.442Z,3.93
2019-03-05T22:08:41.896Z,4.10
2019-03-05T22:11:11.424Z,6.07
2019-03-05T22:13:40.877Z,5.83
2019-03-05T22:16:10.428Z,5.13
2019-03-05T22:18:39.992Z,4.07
2019-03-05T22:21:09.460Z,4.40
2019-03-05T22:23:39.059Z,3.33
2019-03-05T22:26:08.622Z,5.27
2019-03-05T22:28:38.358Z,8.10
2019-03-05T22:31:07.825Z,7.60
2019-03-05T22:33:37.291Z,4.60
2019-03-05T22:36:06.860Z,3.53
2019-03-05T22:38:36.340Z,6.07
2019-03-05T22:41:06.063Z,4.23
2019-03-05T22:43:35.538Z,3.90
2019-03-05T22:46:05.287Z,4.70
2019-03-05T22:48:34.799Z,6.50
2019-03-05T22:51:04.323Z,5.83
2019-03-05T22:53:33.811Z,6.37
2019-03-05T22:56:03.320Z,3.20
2019-03-05T22:58:32.805Z,4.83
2019-03-05T23:01:10.518Z,3.97
2019-03-05T23:03:41.666Z,5.27
2019-03-05T23:06:12.990Z,6.77
2019-03-05T23:08:42.578Z,5.87
2019-03-05T23:11:12.202Z,5.30
2019-03-05T23:13:42.258Z,4.63
2019-03-05T23:16:13.231Z,4.73
2019-03-05T23:18:42.683Z,5.57
2019-03-05T23:21:13.107Z,4.63
2019-03-05T23:23:42.674Z,5.50
2019-03-05T23:26:13.070Z,4.67
2019-03-05T23:28:43.549Z,4.13
2019-03-05T23:31:13.901Z,4.50
2019-03-05T23:33:43.487Z,4.57
2019-03-05T23:36:13.116Z,4.93
2019-03-05T23:38:42.634Z,5.43
2019-03-05T23:41:12.308Z,6.10
2019-03-05T23:43:41.836Z,5.30
2019-03-05T23:46:12.887Z,4.63
2019-03-05T23:48:42.520Z,5.23
2019-03-05T23:51:11.982Z,5.37
2019-03-05T23:53:41.446Z,5.03
2019-03-05T23:56:10.926Z,4.60
2019-03-05T23:58:40.442Z,4.93
